createdAt,value
2019-05-21T00:00:39.442Z,12.90
2019-05-21T00:06:29.612Z,12.80
2019-05-21T00:09:20.517Z,12.80
2019-05-21T00:11:51.794Z,12.70
2019-05-21T00:14:27.830Z,12.70
2019-05-21T00:17:02.375Z,12.70
2019-05-21T00:19:44.116Z,12.70
2019-05-21T00:22:23.486Z,12.70
2019-05-21T00:24:58.946Z,12.70
2019-05-21T00:27:33.999Z,12.60
2019-05-21T00:30:56.199Z,12.60
2019-05-21T00:34:01.945Z,12.60
2019-05-21T00:37:31.502Z,12.60
2019-05-21T00:40:43.004Z,12.50
2019-05-21T00:43:15.584Z,12.50
2019-05-21T00:46:03.407Z,12.50
2019-05-21T00:48:35.681Z,12.50
2019-05-21T00:51:12.287Z,12.50
2019-05-21T00:53:43.117Z,12.40
2019-05-21T00:56:17.630Z,12.40
2019-05-21T01:03:26.925Z,12.30
2019-05-21T01:06:06.650Z,12.20
2019-05-21T01:08:42.019Z,12.20
2019-05-21T01:11:19.470Z,12.20
2019-05-21T01:14:37.411Z,12.10
2019-05-21T01:17:08.836Z,12.10
2019-05-21T01:19:45.577Z,12.10
2019-05-21T01:22:22.767Z,12.10
2019-05-21T01:25:22.996Z,12.10
2019-05-21T01:31:43.883Z,12.10
2019-05-21T01:34:28.005Z,12.10
2019-05-21T01:37:11.296Z,12.00
2019-05-21T01:47:44.682Z,11.90
2019-05-21T01:53:50.897Z,11.90
2019-05-21T02:00:02.315Z,11.80
2019-05-21T02:03:11.652Z,11.70
2019-05-21T02:06:25.110Z,11.80
2019-05-21T02:16:02.434Z,11.70
2019-05-21T02:22:24.126Z,11.60
2019-05-21T02:28:26.313Z,11.50
2019-05-21T02:31:44.797Z,11.60
2019-05-21T03:27:06.428Z,11.30
2019-05-21T05:03:05.261Z,11.10
2019-05-21T05:05:35.615Z,11.10
2019-05-21T05:19:13.890Z,11.20
2019-05-21T05:25:42.890Z,11.30
2019-05-21T05:28:46.376Z,11.30
2019-05-21T05:31:20.503Z,11.40
2019-05-21T05:33:50.548Z,11.40
2019-05-21T05:36:22.447Z,11.50
2019-05-21T05:38:58.162Z,11.50
2019-05-21T05:41:39.805Z,11.60
2019-05-21T05:44:22.345Z,11.70
2019-05-21T05:46:57.325Z,11.70
2019-05-21T05:49:37.204Z,11.80
2019-05-21T05:52:10.311Z,11.80
2019-05-21T05:54:48.348Z,11.90
2019-05-21T05:57:23.068Z,12.00
2019-05-21T06:00:00.493Z,12.10
2019-05-21T06:02:30.460Z,12.20
2019-05-21T06:05:07.121Z,12.20
2019-05-21T06:07:37.976Z,12.30
2019-05-21T06:10:07.999Z,12.40
2019-05-21T06:12:41.602Z,12.50
2019-05-21T06:15:26.042Z,12.60
2019-05-21T06:18:06.433Z,12.80
2019-05-21T06:20:44.727Z,12.90
2019-05-21T06:23:13.471Z,13.10
2019-05-21T06:28:31.356Z,13.30
2019-05-21T06:31:01.035Z,13.40
2019-05-21T06:33:30.764Z,13.50
2019-05-21T06:36:02.340Z,13.50
2019-05-21T06:38:35.520Z,13.50
2019-05-21T06:41:05.191Z,13.50
2019-05-21T06:43:34.916Z,13.70
2019-05-21T06:46:04.601Z,13.90
2019-05-21T06:48:34.325Z,14.10
2019-05-21T06:51:03.869Z,14.20
2019-05-21T06:53:33.408Z,14.30
2019-05-21T06:56:07.191Z,14.40
2019-05-21T06:58:34.477Z,14.70
2019-05-21T07:01:04.313Z,15.00
2019-05-21T07:03:33.883Z,15.20
2019-05-21T07:06:03.856Z,15.40
2019-05-21T07:08:35.235Z,15.70
2019-05-21T07:11:05.565Z,15.80
2019-05-21T07:13:35.142Z,16.00
2019-05-21T07:16:04.940Z,16.10
2019-05-21T07:18:34.533Z,16.30
2019-05-21T07:21:04.069Z,16.50
2019-05-21T07:23:33.956Z,16.70
2019-05-21T07:26:03.552Z,16.90
2019-05-21T07:28:34.217Z,17.10
2019-05-21T07:31:03.812Z,17.30
2019-05-21T07:33:33.621Z,17.40
2019-05-21T07:36:04.406Z,17.50
2019-05-21T07:38:50.203Z,17.60
2019-05-21T07:41:05.517Z,17.70
2019-05-21T07:43:35.362Z,17.80
2019-05-21T07:46:05.050Z,18.00
2019-05-21T07:48:34.693Z,18.10
2019-05-21T07:51:04.452Z,18.10
2019-05-21T07:53:34.181Z,18.20
2019-05-21T07:56:03.821Z,18.20
2019-05-21T07:58:33.625Z,18.40
2019-05-21T08:01:04.362Z,18.70
2019-05-21T08:03:34.268Z,18.80
2019-05-21T08:06:05.194Z,19.00
2019-05-21T08:08:35.283Z,19.20
2019-05-21T08:11:04.920Z,19.50
2019-05-21T08:13:35.352Z,19.60
2019-05-21T08:16:05.939Z,19.80
2019-05-21T08:18:45.207Z,20.00
2019-05-21T08:21:16.135Z,20.10
2019-05-21T08:23:48.893Z,20.20
2019-05-21T08:26:23.634Z,20.30
2019-05-21T08:28:59.307Z,20.30
2019-05-21T08:31:33.350Z,20.30
2019-05-21T08:36:53.353Z,20.40
2019-05-21T08:39:28.903Z,20.70
2019-05-21T08:41:57.771Z,20.80
2019-05-21T08:44:30.063Z,20.90
2019-05-21T08:47:04.501Z,20.80
2019-05-21T08:49:39.495Z,20.90
2019-05-21T08:52:18.727Z,21.00
2019-05-21T08:54:50.079Z,21.20
2019-05-21T08:57:19.920Z,21.40
2019-05-21T08:59:49.637Z,21.50
2019-05-21T09:02:19.834Z,21.70
2019-05-21T09:04:49.422Z,21.60
2019-05-21T09:07:19.113Z,21.70
2019-05-21T09:09:51.404Z,21.70
2019-05-21T09:12:20.267Z,21.80
2019-05-21T09:14:49.886Z,21.90
2019-05-21T09:17:19.698Z,22.00
2019-05-21T09:19:49.240Z,22.10
2019-05-21T09:22:18.734Z,22.20
2019-05-21T09:24:48.254Z,22.40
2019-05-21T09:27:17.830Z,22.50
2019-05-21T09:29:47.360Z,22.30
2019-05-21T09:32:16.872Z,22.40
2019-05-21T09:34:49.049Z,22.40
2019-05-21T09:37:20.016Z,22.40
2019-05-21T09:39:49.368Z,22.30
2019-05-21T09:42:20.100Z,22.40
2019-05-21T09:44:49.605Z,22.30
2019-05-21T09:47:19.111Z,22.50
2019-05-21T09:49:48.694Z,22.30
2019-05-21T09:52:18.287Z,22.10
2019-05-21T09:54:47.870Z,21.90
2019-05-21T09:57:19.152Z,21.90
2019-05-21T09:59:51.558Z,21.90
2019-05-21T10:02:23.964Z,21.80
2019-05-21T10:04:56.909Z,21.70
2019-05-21T10:07:38.927Z,21.80
2019-05-21T10:09:58.832Z,21.80
2019-05-21T10:12:28.420Z,21.80
2019-05-21T10:14:58.090Z,21.70
2019-05-21T10:17:28.004Z,21.50
2019-05-21T10:19:59.074Z,21.30
2019-05-21T10:22:29.159Z,21.30
2019-05-21T10:24:58.736Z,21.30
2019-05-21T10:27:29.222Z,21.30
2019-05-21T10:29:58.812Z,21.20
2019-05-21T10:32:28.309Z,21.10
2019-05-21T10:34:58.236Z,21.00
2019-05-21T10:37:29.306Z,21.00
2019-05-21T10:39:58.866Z,20.80
2019-05-21T10:42:29.555Z,21.00
2019-05-21T10:44:58.368Z,21.10
2019-05-21T10:47:28.060Z,21.00
2019-05-21T10:49:58.988Z,21.00
2019-05-21T10:52:28.541Z,20.90
2019-05-21T10:54:58.881Z,21.00
2019-05-21T10:57:28.498Z,21.00
2019-05-21T10:59:58.399Z,21.00
2019-05-21T11:02:41.997Z,20.80
2019-05-21T11:05:28.686Z,20.70
2019-05-21T11:07:56.759Z,20.70
2019-05-21T11:10:26.574Z,20.70
2019-05-21T11:12:56.387Z,20.90
2019-05-21T11:15:25.996Z,21.10
2019-05-21T11:18:09.919Z,21.30
2019-05-21T11:20:27.142Z,21.30
2019-05-21T11:22:58.451Z,21.20
2019-05-21T11:25:29.242Z,21.30
2019-05-21T11:27:59.999Z,21.30
2019-05-21T11:30:29.510Z,21.40
2019-05-21T11:32:59.089Z,21.50
2019-05-21T11:35:28.660Z,21.60
2019-05-21T11:37:58.891Z,21.40
2019-05-21T11:40:28.584Z,21.50
2019-05-21T11:42:59.229Z,21.50
2019-05-21T11:45:32.069Z,21.50
2019-05-21T11:47:59.346Z,21.50
2019-05-21T11:50:29.469Z,21.70
2019-05-21T11:53:00.051Z,21.90
2019-05-21T11:55:28.877Z,22.00
2019-05-21T11:57:58.326Z,22.00
2019-05-21T12:00:28.893Z,22.00
2019-05-21T12:02:58.562Z,22.00
2019-05-21T12:05:31.349Z,21.80
2019-05-21T12:07:59.990Z,21.60
2019-05-21T12:10:29.569Z,21.50
2019-05-21T12:12:59.336Z,21.50
2019-05-21T12:15:28.861Z,21.60
2019-05-21T12:17:59.277Z,21.80
2019-05-21T12:20:36.915Z,22.00
2019-05-21T12:23:00.454Z,22.10
2019-05-21T12:25:29.960Z,22.00
2019-05-21T12:27:59.789Z,21.80
2019-05-21T12:30:29.615Z,21.80
2019-05-21T12:32:59.276Z,21.70
2019-05-21T12:35:28.995Z,21.70
2019-05-21T12:37:58.902Z,21.60
2019-05-21T12:40:28.426Z,21.40
2019-05-21T12:42:58.451Z,21.60
2019-05-21T12:45:28.326Z,21.70
2019-05-21T12:47:58.989Z,21.80
2019-05-21T12:50:28.757Z,21.80
2019-05-21T12:52:58.471Z,21.90
2019-05-21T12:55:28.072Z,22.10
2019-05-21T12:57:59.088Z,22.10
2019-05-21T13:00:33.145Z,22.00
2019-05-21T13:03:02.675Z,22.00
2019-05-21T13:05:32.471Z,21.80
2019-05-21T13:08:02.073Z,21.60
2019-05-21T13:10:32.038Z,21.50
2019-05-21T13:13:01.882Z,21.40
2019-05-21T13:15:31.558Z,21.50
2019-05-21T13:18:01.788Z,21.60
2019-05-21T13:20:31.285Z,21.70
2019-05-21T13:23:00.796Z,21.90
2019-05-21T13:25:30.394Z,21.90
2019-05-21T13:28:00.898Z,21.80
2019-05-21T13:30:30.564Z,21.70
2019-05-21T13:33:00.066Z,21.70
2019-05-21T13:35:29.945Z,21.80
2019-05-21T13:37:59.766Z,21.80
2019-05-21T13:40:30.612Z,21.50
2019-05-21T13:43:00.406Z,21.40
2019-05-21T13:45:29.984Z,21.40
2019-05-21T13:47:59.539Z,21.40
2019-05-21T13:50:29.365Z,21.40
2019-05-21T13:52:59.250Z,21.60
2019-05-21T13:55:28.933Z,21.80
2019-05-21T13:57:59.080Z,22.00
2019-05-21T14:00:33.149Z,22.10
2019-05-21T14:03:03.772Z,22.10
2019-05-21T14:05:32.569Z,22.10
2019-05-21T14:08:03.382Z,22.10
2019-05-21T14:10:33.530Z,22.20
2019-05-21T14:13:03.427Z,22.30
2019-05-21T14:15:33.037Z,22.40
2019-05-21T14:18:02.677Z,22.40
2019-05-21T14:20:33.332Z,22.50
2019-05-21T14:23:03.278Z,22.50
2019-05-21T14:25:33.546Z,22.40
2019-05-21T14:28:03.540Z,22.30
2019-05-21T14:30:33.474Z,22.30
2019-05-21T14:33:02.984Z,22.30
2019-05-21T14:35:32.796Z,22.30
2019-05-21T14:38:02.421Z,22.30
2019-05-21T14:40:33.353Z,22.00
2019-05-21T14:43:02.961Z,21.90
2019-05-21T14:45:34.181Z,21.80
2019-05-21T14:48:05.605Z,21.80
2019-05-21T14:50:34.377Z,21.90
2019-05-21T14:53:03.969Z,22.00
2019-05-21T14:55:33.716Z,22.00
2019-05-21T14:58:03.238Z,22.20
2019-05-21T15:00:39.589Z,22.30
2019-05-21T15:03:24.154Z,22.30
2019-05-21T15:05:41.578Z,22.20
2019-05-21T15:08:10.282Z,22.20
2019-05-21T15:10:48.616Z,22.20
2019-05-21T15:13:10.894Z,22.10
2019-05-21T15:15:40.442Z,22.10
2019-05-21T15:18:10.047Z,22.00
2019-05-21T15:20:44.345Z,22.10
2019-05-21T15:23:13.993Z,22.10
2019-05-21T15:25:43.765Z,22.10
2019-05-21T15:28:13.367Z,22.10
2019-05-21T15:30:43.192Z,22.00
2019-05-21T15:33:12.772Z,22.00
2019-05-21T15:35:42.626Z,22.00
2019-05-21T15:38:12.316Z,21.90
2019-05-21T15:40:42.052Z,21.90
2019-05-21T15:43:12.875Z,22.00
2019-05-21T15:45:42.377Z,22.10
2019-05-21T15:48:13.149Z,22.10
2019-05-21T15:50:42.184Z,22.20
2019-05-21T15:53:11.661Z,22.00
2019-05-21T15:55:41.158Z,21.80
2019-05-21T15:58:10.684Z,21.60
2019-05-21T16:00:40.957Z,21.70
2019-05-21T16:03:12.141Z,21.60
2019-05-21T16:05:41.713Z,21.70
2019-05-21T16:08:11.338Z,21.70
2019-05-21T16:10:41.047Z,21.60
2019-05-21T16:13:10.568Z,21.70
2019-05-21T16:15:40.140Z,21.60
2019-05-21T16:18:10.799Z,21.60
2019-05-21T16:20:42.490Z,21.60
2019-05-21T16:23:11.537Z,21.70
2019-05-21T16:25:41.040Z,21.60
2019-05-21T16:28:10.621Z,21.50
2019-05-21T16:30:40.545Z,21.30
2019-05-21T16:33:12.523Z,21.30
2019-05-21T16:35:42.293Z,21.30
2019-05-21T16:38:11.805Z,21.30
2019-05-21T16:40:41.326Z,21.40
2019-05-21T16:43:11.250Z,21.40
2019-05-21T16:45:40.861Z,21.40
2019-05-21T16:48:10.702Z,21.40
2019-05-21T16:50:40.207Z,21.40
2019-05-21T16:53:09.694Z,21.40
2019-05-21T16:55:39.280Z,21.30
2019-05-21T16:58:09.933Z,21.30
2019-05-21T17:00:39.677Z,21.20
2019-05-21T17:03:09.352Z,21.20
2019-05-21T17:05:39.227Z,21.20
2019-05-21T17:08:08.789Z,21.20
2019-05-21T17:10:38.360Z,21.20
2019-05-21T17:13:08.133Z,21.20
2019-05-21T17:15:37.737Z,21.10
2019-05-21T17:18:07.243Z,21.00
2019-05-21T17:20:36.760Z,21.00
2019-05-21T17:23:06.250Z,20.90
2019-05-21T17:25:36.908Z,20.90
2019-05-21T17:28:06.468Z,20.80
2019-05-21T17:30:36.409Z,20.80
2019-05-21T17:33:08.728Z,20.80
2019-05-21T17:35:38.308Z,20.60
2019-05-21T17:38:09.272Z,20.50
2019-05-21T17:40:38.870Z,20.50
2019-05-21T17:43:08.449Z,20.50
2019-05-21T17:45:38.023Z,20.40
2019-05-21T17:48:07.849Z,20.40
2019-05-21T17:50:37.358Z,20.40
2019-05-21T17:53:11.844Z,20.30
2019-05-21T17:55:41.741Z,20.10
2019-05-21T17:58:13.670Z,20.00
2019-05-21T18:00:56.541Z,19.90
2019-05-21T18:03:26.576Z,19.80
2019-05-21T18:05:56.408Z,19.70
2019-05-21T18:08:26.002Z,19.70
2019-05-21T18:10:56.311Z,19.60
2019-05-21T18:13:29.343Z,19.50
2019-05-21T18:15:59.098Z,19.40
2019-05-21T18:18:28.856Z,19.30
2019-05-21T18:20:59.936Z,19.30
2019-05-21T18:23:29.813Z,19.30
2019-05-21T18:25:59.603Z,19.20
2019-05-21T18:28:35.848Z,19.20
2019-05-21T18:31:30.405Z,19.10
2019-05-21T18:34:00.032Z,19.10
2019-05-21T18:36:29.629Z,19.00
2019-05-21T18:39:00.043Z,19.00
2019-05-21T18:41:36.479Z,19.00
2019-05-21T18:44:28.589Z,18.90
2019-05-21T18:46:58.244Z,18.80
2019-05-21T18:53:17.815Z,18.70
2019-05-21T18:55:47.513Z,18.60
2019-05-21T18:58:17.783Z,18.60
2019-05-21T19:04:42.293Z,18.50
2019-05-21T19:07:12.728Z,18.40
2019-05-21T19:09:42.237Z,18.40
2019-05-21T19:12:11.956Z,18.40
2019-05-21T19:14:44.977Z,18.30
2019-05-21T19:17:34.864Z,18.20
2019-05-21T19:19:56.314Z,18.20
2019-05-21T19:25:48.557Z,18.00
2019-05-21T19:32:05.911Z,17.80
2019-05-21T19:34:35.685Z,17.70
2019-05-21T19:37:05.791Z,17.70
2019-05-21T19:39:36.338Z,17.70
2019-05-21T19:42:05.965Z,17.70
2019-05-21T19:47:52.669Z,17.60
2019-05-21T19:50:22.351Z,17.60
2019-05-21T19:55:59.243Z,17.40
2019-05-21T19:58:28.988Z,17.40
2019-05-21T20:23:56.113Z,17.00
2019-05-21T20:40:02.125Z,16.60
